Time;durP1;ratioP1;P1;durP2;ratioP2;P2;SDS_P1;SDS_P2;PMS_P1;PMS_P2;Temp;Humidity;BMP_temperature;BMP_pressure;BME280_temperature;BME280_humidity;BME280_pressure;Samples;Min_cycle;Max_cycle;Signal;HPM_P1;HPM_P2
2023/04/29 00:00:15;;;;;;;0.82;0.60;;;;;;;;;;10285351;28;20148;-92
2023/04/29 00:05:32;;;;;;;1.75;0.70;;;;;;;;;;10287082;28;20066;-89
2023/04/29 00:16:18;;;;;;;1.05;0.30;;;;;;;;;;10279723;28;20105;-89
2023/04/29 00:21:37;;;;;;;0.28;0.28;;;;;;;;;;10267685;28;20035;-92
2023/04/29 00:26:42;;;;;;;1.17;0.70;;;;;;;;;;10283651;28;20047;-89
2023/04/29 00:32:01;;;;;;;0.75;0.55;;;;;;;;;;10268231;28;20142;-88
2023/04/29 00:37:06;;;;;;;2.95;0.45;;;;;;;;;;10269528;28;20043;-92
2023/04/29 00:42:14;;;;;;;1.10;0.60;;;;;;;;;;10274230;28;20088;-92
2023/04/29 00:47:29;;;;;;;1.25;0.75;;;;;;;;;;10299171;28;20046;-92
2023/04/29 00:52:40;;;;;;;1.42;0.35;;;;;;;;;;10294219;28;20085;-90
2023/04/29 00:57:51;;;;;;;1.15;0.60;;;;;;;;;;10260774;28;20051;-91
2023/04/29 01:02:58;;;;;;;1.08;0.40;;;;;;;;;;10284380;28;20050;-92
2023/04/29 01:08:12;;;;;;;1.48;0.50;;;;;;;;;;10267171;28;20050;-87
2023/04/29 01:13:29;;;;;;;0.55;0.47;;;;;;;;;;10260411;28;20086;-87
2023/04/29 01:18:42;;;;;;;0.40;0.30;;;;;;;;;;10277626;28;20094;-88
2023/04/29 01:23:57;;;;;;;1.02;0.43;;;;;;;;;;10263954;28;20045;-87
2023/04/29 01:29:10;;;;;;;1.38;0.60;;;;;;;;;;10264450;28;20035;-91
2023/04/29 01:34:20;;;;;;;0.30;0.30;;;;;;;;;;10280312;28;20051;-91
2023/04/29 01:39:51;;;;;;;1.00;0.68;;;;;;;;;;10265731;28;20122;-91
2023/04/29 01:45:21;;;;;;;0.65;0.45;;;;;;;;;;10252380;28;20499;-88
2023/04/29 01:50:27;;;;;;;0.20;0.20;;;;;;;;;;10280005;28;20035;-92
2023/04/29 02:01:37;;;;;;;1.23;0.73;;;;;;;;;;10262558;28;20061;-88
2023/04/29 02:06:41;;;;;;;3.67;0.98;;;;;;;;;;10267552;28;20078;-89
2023/04/29 02:11:49;;;;;;;1.17;0.80;;;;;;;;;;10301782;28;20088;-93
2023/04/29 02:22:54;;;;;;;0.82;0.60;;;;;;;;;;10288446;28;20145;-96
2023/04/29 02:28:04;;;;;;;0.88;0.43;;;;;;;;;;10279651;28;20051;-92
2023/04/29 02:33:10;;;;;;;1.88;1.23;;;;;;;;;;10310028;28;20027;-93
2023/04/29 02:38:24;;;;;;;1.05;0.73;;;;;;;;;;10294919;28;20046;-91
2023/04/29 02:43:40;;;;;;;1.73;1.15;;;;;;;;;;10304048;28;20146;-90
2023/04/29 02:48:58;;;;;;;3.50;1.40;;;;;;;;;;10288702;28;20146;-89
2023/04/29 02:55:00;;;;;;;0.73;0.47;;;;;;;;;;10274831;28;20044;-91
2023/04/29 03:00:23;;;;;;;4.35;1.67;;;;;;;;;;10303622;28;20072;-93
2023/04/29 03:05:38;;;;;;;1.35;1.02;;;;;;;;;;10273991;28;20368;-93
2023/04/29 03:10:45;;;;;;;1.83;1.15;;;;;;;;;;10276285;28;20051;-90
2023/04/29 03:21:16;;;;;;;4.68;1.52;;;;;;;;;;10271941;28;20039;-90
2023/04/29 03:26:29;;;;;;;4.22;1.90;;;;;;;;;;10279588;28;20067;-91
2023/04/29 03:31:55;;;;;;;1.83;1.30;;;;;;;;;;10286832;28;20069;-92
2023/04/29 03:37:15;;;;;;;1.33;1.23;;;;;;;;;;10286452;28;20154;-94
2023/04/29 03:42:23;;;;;;;1.67;1.08;;;;;;;;;;10269235;28;20043;-93
2023/04/29 03:47:29;;;;;;;2.33;1.13;;;;;;;;;;10288276;28;20062;-90
2023/04/29 03:52:38;;;;;;;3.08;1.08;;;;;;;;;;10304050;28;20039;-92
2023/04/29 03:57:42;;;;;;;2.55;1.50;;;;;;;;;;10326989;28;20050;-92
2023/04/29 04:02:50;;;;;;;2.60;1.45;;;;;;;;;;10250992;28;20039;-91
2023/04/29 04:08:01;;;;;;;2.17;1.35;;;;;;;;;;10275669;28;20408;-93
2023/04/29 04:13:05;;;;;;;4.85;2.00;;;;;;;;;;10283994;28;20066;-91
2023/04/29 04:18:19;;;;;;;1.17;0.77;;;;;;;;;;10286746;28;20069;-92
2023/04/29 04:23:29;;;;;;;2.70;1.10;;;;;;;;;;10298406;28;20078;-90
2023/04/29 04:28:41;;;;;;;1.48;1.02;;;;;;;;;;10292067;28;20094;-91
2023/04/29 04:33:54;;;;;;;1.90;0.93;;;;;;;;;;10296367;28;20047;-91
2023/04/29 04:39:08;;;;;;;3.30;1.83;;;;;;;;;;10282478;28;20057;-91
2023/04/29 04:44:14;;;;;;;4.00;2.30;;;;;;;;;;10291212;28;20125;-92
2023/04/29 04:49:27;;;;;;;8.10;2.20;;;;;;;;;;10287216;28;20127;-92
2023/04/29 04:54:34;;;;;;;6.70;2.38;;;;;;;;;;10270538;28;20054;-94
2023/04/29 04:59:39;;;;;;;5.35;2.30;;;;;;;;;;10312316;28;20035;-96
2023/04/29 05:05:01;;;;;;;4.07;2.22;;;;;;;;;;10289465;28;20067;-90
2023/04/29 05:10:25;;;;;;;1.83;1.05;;;;;;;;;;10309454;28;20097;-90
2023/04/29 05:15:42;;;;;;;7.40;2.38;;;;;;;;;;10310478;28;20034;-93
2023/04/29 05:20:58;;;;;;;3.22;1.95;;;;;;;;;;10302479;28;20047;-93
2023/04/29 05:26:22;;;;;;;3.25;2.00;;;;;;;;;;10297989;28;20468;-93
2023/04/29 05:31:27;;;;;;;4.35;2.40;;;;;;;;;;10314373;28;20186;-93
2023/04/29 05:36:39;;;;;;;5.68;2.35;;;;;;;;;;10330756;28;20031;-94
2023/04/29 05:41:48;;;;;;;4.47;2.30;;;;;;;;;;10295572;28;20066;-93
2023/04/29 05:47:08;;;;;;;4.60;2.17;;;;;;;;;;10271110;28;20054;-93
2023/04/29 05:52:44;;;;;;;3.08;1.88;;;;;;;;;;10620391;27;20410;-91
2023/04/29 05:57:47;;;;;;;4.15;2.40;;;;;;;;;;10584332;28;20048;-95
2023/04/29 06:02:50;;;;;;;5.57;2.23;;;;;;;;;;10570348;28;20093;-86
2023/04/29 06:08:02;;;;;;;6.05;2.60;;;;;;;;;;10562232;28;20040;-89
2023/04/29 06:13:05;;;;;;;8.93;3.15;;;;;;;;;;10563839;28;20059;-90
2023/04/29 06:18:08;;;;;;;5.82;3.25;;;;;;;;;;10562327;28;20046;-90
2023/04/29 06:23:12;;;;;;;6.73;2.90;;;;;;;;;;10571364;28;20504;-95
2023/04/29 06:28:15;;;;;;;3.95;2.00;;;;;;;;;;11162902;23;20405;-90
2023/04/29 06:33:18;;;;;;;3.27;2.13;;;;;;;;;;10482620;28;20041;-87
2023/04/29 06:38:22;;;;;;;4.97;2.87;;;;;;;;;;10472136;28;20299;-88
2023/04/29 06:43:25;;;;;;;6.65;2.78;;;;;;;;;;10483303;28;20094;-89
2023/04/29 06:48:28;;;;;;;5.07;2.75;;;;;;;;;;10476534;28;20036;-87
2023/04/29 06:53:32;;;;;;;10.80;3.60;;;;;;;;;;10481797;28;20029;-87
2023/04/29 06:58:34;;;;;;;5.32;2.83;;;;;;;;;;10485554;28;20051;-89
2023/04/29 07:03:38;;;;;;;6.35;3.75;;;;;;;;;;10457900;28;20053;-90
2023/04/29 07:08:42;;;;;;;5.97;3.28;;;;;;;;;;10460793;28;20068;-91
2023/04/29 07:13:45;;;;;;;3.22;2.53;;;;;;;;;;10460848;28;20061;-92
2023/04/29 07:18:48;;;;;;;4.47;2.13;;;;;;;;;;10458072;28;20037;-88
2023/04/29 07:23:52;;;;;;;4.22;2.80;;;;;;;;;;10484002;28;20052;-89
2023/04/29 07:28:55;;;;;;;3.80;2.20;;;;;;;;;;10474498;28;20052;-88
2023/04/29 07:33:57;;;;;;;3.77;2.30;;;;;;;;;;10493094;28;20104;-89
2023/04/29 07:39:01;;;;;;;2.97;2.57;;;;;;;;;;10495306;28;20041;-86
2023/04/29 07:44:04;;;;;;;4.65;2.95;;;;;;;;;;10492628;28;20081;-88
2023/04/29 07:49:07;;;;;;;4.25;2.30;;;;;;;;;;10479467;28;20051;-89
2023/04/29 07:54:10;;;;;;;;;;;;;;;;;;10472401;28;20602;-90
2023/04/29 07:59:14;;;;;;;3.47;2.40;;;;;;;;;;10459002;28;20399;-86
2023/04/29 08:04:18;;;;;;;2.25;2.05;;;;;;;;;;10450381;28;20091;-85
2023/04/29 08:14:43;;;;;;;2.50;2.25;;;;;;;;;;10458265;28;20049;-87
2023/04/29 08:19:45;;;;;;;2.25;2.03;;;;;;;;;;10459188;28;20039;-84
2023/04/29 08:24:48;;;;;;;3.88;2.17;;;;;;;;;;10456662;28;20115;-82
2023/04/29 08:29:52;;;;;;;2.83;2.30;;;;;;;;;;10447247;28;20047;-82
2023/04/29 08:34:55;;;;;;;3.42;1.70;;;;;;;;;;10449326;28;20072;-87
2023/04/29 08:39:58;;;;;;;2.75;1.92;;;;;;;;;;10454750;28;20038;-89
2023/04/29 08:45:03;;;;;;;1.75;1.65;;;;;;;;;;10468594;28;20035;-86
2023/04/29 08:50:12;;;;;;;2.30;2.10;;;;;;;;;;10476988;28;20092;-87
2023/04/29 08:55:20;;;;;;;3.55;2.20;;;;;;;;;;10483198;28;20057;-90
2023/04/29 09:00:25;;;;;;;2.22;2.03;;;;;;;;;;10494083;28;20028;-96
2023/04/29 09:05:28;;;;;;;2.55;1.90;;;;;;;;;;10490255;28;20048;-96
2023/04/29 09:10:32;;;;;;;1.70;1.60;;;;;;;;;;11079870;23;20051;-95
2023/04/29 09:15:39;;;;;;;2.40;2.20;;;;;;;;;;10471904;28;20051;-94
2023/04/29 09:20:42;;;;;;;3.17;1.58;;;;;;;;;;10484230;28;20025;-95
2023/04/29 09:25:55;;;;;;;2.45;1.40;;;;;;;;;;10471145;28;20116;-94
2023/04/29 09:30:59;;;;;;;1.83;1.13;;;;;;;;;;10463834;28;20041;-94
2023/04/29 09:36:02;;;;;;;1.77;1.35;;;;;;;;;;10520813;22;21294;-95
2023/04/29 09:41:10;;;;;;;1.92;1.83;;;;;;;;;;10505630;28;20112;-94
2023/04/29 09:46:16;;;;;;;2.42;2.20;;;;;;;;;;10498967;28;20070;-86
2023/04/29 09:51:19;;;;;;;2.50;2.30;;;;;;;;;;10493939;28;20047;-91
2023/04/29 09:56:22;;;;;;;1.67;1.58;;;;;;;;;;10458196;28;20051;-92
2023/04/29 10:01:27;;;;;;;1.92;1.52;;;;;;;;;;10490616;28;20578;-93
2023/04/29 10:06:30;;;;;;;1.23;1.08;;;;;;;;;;10493955;28;20131;-91
2023/04/29 10:11:34;;;;;;;2.20;1.90;;;;;;;;;;10494734;28;20059;-90
2023/04/29 10:16:41;;;;;;;3.63;2.47;;;;;;;;;;10486684;28;20135;-90
2023/04/29 10:21:44;;;;;;;2.88;2.10;;;;;;;;;;10503560;28;20108;-94
2023/04/29 10:26:47;;;;;;;4.72;2.17;;;;;;;;;;10489292;28;20075;-89
2023/04/29 10:31:51;;;;;;;2.67;1.80;;;;;;;;;;10518613;28;20036;-90
2023/04/29 10:36:54;;;;;;;5.70;3.20;;;;;;;;;;10530616;28;20073;-89
2023/04/29 10:41:57;;;;;;;2.97;2.15;;;;;;;;;;10529218;28;20086;-90
2023/04/29 10:47:22;;;;;;;2.60;2.40;;;;;;;;;;10518892;28;20131;-90
2023/04/29 10:52:25;;;;;;;11.98;7.78;;;;;;;;;;10510900;28;20490;-86
2023/04/29 10:57:28;;;;;;;3.03;2.70;;;;;;;;;;10501186;28;20175;-91
2023/04/29 11:02:32;;;;;;;3.88;2.45;;;;;;;;;;10500161;28;20036;-88
2023/04/29 11:07:36;;;;;;;2.50;2.30;;;;;;;;;;10502232;28;20052;-92
2023/04/29 11:12:39;;;;;;;2.50;2.17;;;;;;;;;;10496676;28;20114;-90
2023/04/29 11:17:46;;;;;;;2.00;1.90;;;;;;;;;;10500512;28;20040;-91
2023/04/29 11:22:51;;;;;;;1.85;1.48;;;;;;;;;;10493891;28;20033;-90
2023/04/29 11:27:55;;;;;;;1.90;1.73;;;;;;;;;;10503296;28;20052;-91
2023/04/29 11:33:00;;;;;;;3.90;2.78;;;;;;;;;;10505748;28;20029;-90
2023/04/29 11:38:04;;;;;;;1.80;1.70;;;;;;;;;;10499416;28;20084;-89
2023/04/29 11:43:07;;;;;;;2.20;2.00;;;;;;;;;;10499063;28;20040;-90
2023/04/29 11:48:17;;;;;;;2.42;2.00;;;;;;;;;;10496323;28;20109;-90
2023/04/29 11:53:20;;;;;;;1.35;1.25;;;;;;;;;;10497181;28;20104;-89
2023/04/29 11:58:24;;;;;;;2.08;1.50;;;;;;;;;;10491233;28;20052;-89
2023/04/29 12:03:28;;;;;;;1.65;1.40;;;;;;;;;;10491303;28;20033;-90
2023/04/29 12:08:41;;;;;;;2.65;1.80;;;;;;;;;;10448564;28;20053;-89
2023/04/29 12:13:54;;;;;;;1.60;1.33;;;;;;;;;;10462837;28;20052;-90
2023/04/29 12:19:10;;;;;;;1.58;1.48;;;;;;;;;;10466218;28;20469;-89
2023/04/29 12:24:32;;;;;;;2.15;1.50;;;;;;;;;;10453044;28;20343;-89
2023/04/29 12:29:51;;;;;;;1.38;1.27;;;;;;;;;;10488037;28;20493;-89
2023/04/29 12:35:15;;;;;;;3.13;2.17;;;;;;;;;;10475394;28;20044;-88
2023/04/29 12:40:26;;;;;;;2.00;1.80;;;;;;;;;;10488608;28;20381;-89
2023/04/29 12:45:34;;;;;;;2.17;1.90;;;;;;;;;;10492099;28;20071;-88
2023/04/29 12:50:40;;;;;;;2.75;1.80;;;;;;;;;;10474826;28;20060;-88
2023/04/29 12:55:48;;;;;;;3.25;1.50;;;;;;;;;;10465417;28;20046;-88
2023/04/29 13:00:54;;;;;;;4.22;1.83;;;;;;;;;;10489988;28;20052;-90
2023/04/29 13:06:16;;;;;;;1.70;1.60;;;;;;;;;;10463510;28;20101;-90
2023/04/29 13:11:25;;;;;;;1.60;1.50;;;;;;;;;;10489016;28;20052;-90
2023/04/29 13:16:44;;;;;;;1.75;1.20;;;;;;;;;;10487435;28;20143;-89
2023/04/29 13:21:53;;;;;;;2.72;1.35;;;;;;;;;;10466397;28;20454;-88
2023/04/29 13:27:03;;;;;;;1.10;1.10;;;;;;;;;;10461617;28;20070;-89
2023/04/29 13:32:08;;;;;;;1.50;1.40;;;;;;;;;;10476856;28;20051;-80
2023/04/29 13:37:33;;;;;;;1.45;1.00;;;;;;;;;;10473194;28;20037;-82
2023/04/29 13:42:51;;;;;;;1.05;1.00;;;;;;;;;;10475805;28;20773;-83
2023/04/29 13:48:15;;;;;;;1.00;1.00;;;;;;;;;;10467497;28;20100;-83
2023/04/29 13:53:32;;;;;;;2.08;0.90;;;;;;;;;;10479894;28;20040;-82
2023/04/29 13:58:58;;;;;;;1.10;1.00;;;;;;;;;;10481684;28;20066;-83
2023/04/29 14:04:08;;;;;;;1.75;1.10;;;;;;;;;;10491334;28;20045;-82
2023/04/29 14:09:45;;;;;;;2.10;1.00;;;;;;;;;;10471702;28;20546;-82
2023/04/29 14:15:03;;;;;;;1.40;1.30;;;;;;;;;;10469500;28;20043;-83
2023/04/29 14:20:11;;;;;;;1.38;1.23;;;;;;;;;;10453327;28;20102;-82
2023/04/29 14:25:18;;;;;;;2.20;1.55;;;;;;;;;;10469710;28;20381;-83
2023/04/29 14:30:25;;;;;;;2.97;1.13;;;;;;;;;;10471733;28;20458;-84
2023/04/29 14:35:30;;;;;;;2.90;1.60;;;;;;;;;;10488290;28;20059;-81
2023/04/29 14:40:35;;;;;;;1.50;1.30;;;;;;;;;;10500352;28;20059;-81
2023/04/29 14:45:42;;;;;;;1.20;1.10;;;;;;;;;;10510802;28;20025;-82
2023/04/29 14:50:51;;;;;;;1.38;1.27;;;;;;;;;;10534144;28;20075;-81
2023/04/29 14:56:07;;;;;;;2.17;1.50;;;;;;;;;;10518831;28;20079;-81
2023/04/29 15:01:20;;;;;;;2.83;1.52;;;;;;;;;;10500156;28;20053;-80
2023/04/29 15:06:26;;;;;;;5.60;2.92;;;;;;;;;;10492263;28;20052;-83
2023/04/29 15:11:32;;;;;;;4.00;1.20;;;;;;;;;;10468707;28;20050;-83
2023/04/29 15:16:45;;;;;;;4.72;1.13;;;;;;;;;;10482220;28;20519;-82
2023/04/29 15:21:50;;;;;;;2.00;1.38;;;;;;;;;;10486909;28;20424;-83
2023/04/29 15:27:03;;;;;;;5.35;1.80;;;;;;;;;;10484915;28;20057;-82
2023/04/29 15:32:12;;;;;;;5.53;3.00;;;;;;;;;;10467593;28;20036;-82
2023/04/29 15:37:33;;;;;;;3.17;2.20;;;;;;;;;;10462193;28;20073;-83
2023/04/29 15:42:38;;;;;;;2.78;1.63;;;;;;;;;;10485097;28;20044;-82
2023/04/29 15:47:46;;;;;;;1.50;1.33;;;;;;;;;;10462569;28;20041;-81
2023/04/29 15:52:54;;;;;;;2.53;1.25;;;;;;;;;;10486578;28;20131;-82
2023/04/29 15:57:57;;;;;;;2.13;1.67;;;;;;;;;;10472759;28;20056;-85
2023/04/29 16:03:06;;;;;;;2.35;1.48;;;;;;;;;;10482621;28;20032;-83
2023/04/29 16:08:24;;;;;;;1.35;1.25;;;;;;;;;;10488901;28;20155;-81
2023/04/29 16:13:28;;;;;;;6.60;2.33;;;;;;;;;;10497517;28;20079;-81
2023/04/29 16:18:45;;;;;;;2.60;1.55;;;;;;;;;;10506064;28;20764;-81
2023/04/29 16:23:50;;;;;;;2.95;1.80;;;;;;;;;;10473975;28;20409;-83
2023/04/29 16:29:02;;;;;;;3.92;1.90;;;;;;;;;;10489922;28;20052;-82
2023/04/29 16:34:21;;;;;;;2.75;1.85;;;;;;;;;;10434903;28;20162;-82
2023/04/29 16:39:28;;;;;;;4.43;1.58;;;;;;;;;;10483325;28;20123;-82
2023/04/29 16:44:39;;;;;;;4.47;2.00;;;;;;;;;;10480357;28;20052;-82
2023/04/29 16:50:07;;;;;;;3.17;2.00;;;;;;;;;;10473473;28;20045;-81
2023/04/29 16:55:19;;;;;;;3.10;2.08;;;;;;;;;;10487397;28;20152;-82
2023/04/29 17:00:24;;;;;;;2.53;1.75;;;;;;;;;;10465087;28;20455;-82
2023/04/29 17:05:31;;;;;;;3.05;2.13;;;;;;;;;;10463928;28;20135;-85
2023/04/29 17:10:49;;;;;;;4.18;2.47;;;;;;;;;;10462104;28;20120;-80
2023/04/29 17:15:54;;;;;;;3.25;2.20;;;;;;;;;;10488358;28;20084;-82
2023/04/29 17:21:08;;;;;;;4.10;2.40;;;;;;;;;;10476310;28;20427;-81
2023/04/29 17:26:13;;;;;;;4.53;2.40;;;;;;;;;;10478518;28;20155;-80
2023/04/29 17:31:23;;;;;;;4.28;2.33;;;;;;;;;;10459338;28;20040;-83
2023/04/29 17:36:28;;;;;;;3.15;2.35;;;;;;;;;;10476520;28;20507;-84
2023/04/29 17:41:37;;;;;;;4.43;2.38;;;;;;;;;;10473632;28;20650;-83
2023/04/29 17:46:53;;;;;;;4.63;2.58;;;;;;;;;;10473132;28;20198;-83
2023/04/29 17:52:02;;;;;;;3.80;2.70;;;;;;;;;;10460549;28;20044;-82
2023/04/29 17:57:22;;;;;;;4.30;2.70;;;;;;;;;;10444053;28;20056;-81
2023/04/29 18:08:02;;;;;;;5.32;2.95;;;;;;;;;;10590952;27;20187;-82
2023/04/29 18:13:05;;;;;;;5.95;3.00;;;;;;;;;;10560073;28;20040;-82
2023/04/29 18:18:07;;;;;;;5.93;3.10;;;;;;;;;;10560176;28;20036;-80
2023/04/29 18:23:12;;;;;;;8.02;3.13;;;;;;;;;;10568449;28;20158;-81
2023/04/29 18:28:15;;;;;;;8.30;3.15;;;;;;;;;;10563096;28;20124;-81
2023/04/29 18:33:29;;;;;;;6.60;3.20;;;;;;;;;;10568473;28;20042;-80
2023/04/29 18:38:34;;;;;;;6.97;3.47;;;;;;;;;;10563606;28;20063;-81
2023/04/29 18:43:36;;;;;;;6.72;3.67;;;;;;;;;;10556913;28;20075;-81
2023/04/29 18:48:40;;;;;;;6.93;3.37;;;;;;;;;;10563056;28;20067;-80
2023/04/29 18:53:44;;;;;;;5.78;3.15;;;;;;;;;;10566432;28;20131;-79
2023/04/29 18:58:47;;;;;;;7.43;3.50;;;;;;;;;;10559917;28;20079;-81
2023/04/29 19:03:50;;;;;;;8.77;3.95;;;;;;;;;;10552601;28;20036;-83
2023/04/29 19:08:54;;;;;;;8.20;3.42;;;;;;;;;;10560200;28;20077;-82
2023/04/29 19:13:57;;;;;;;6.00;3.13;;;;;;;;;;10555148;28;20043;-82
2023/04/29 19:19:00;;;;;;;7.75;3.83;;;;;;;;;;10530024;28;20056;-82
2023/04/29 19:24:04;;;;;;;7.72;3.85;;;;;;;;;;10529513;28;20051;-82
2023/04/29 19:29:08;;;;;;;6.40;3.58;;;;;;;;;;10510650;28;20399;-81
2023/04/29 19:34:11;;;;;;;8.30;3.30;;;;;;;;;;10530522;28;20068;-82
2023/04/29 19:39:15;;;;;;;5.87;3.07;;;;;;;;;;10511810;28;20048;-81
2023/04/29 19:44:18;;;;;;;7.68;3.50;;;;;;;;;;10530020;28;20178;-83
2023/04/29 19:49:21;;;;;;;6.23;3.20;;;;;;;;;;10528995;28;20138;-81
2023/04/29 19:54:25;;;;;;;6.88;2.90;;;;;;;;;;10530438;28;20565;-82
2023/04/29 19:59:28;;;;;;;7.28;2.88;;;;;;;;;;10531594;28;20044;-81
2023/04/29 20:04:31;;;;;;;12.97;6.17;;;;;;;;;;10528595;28;20105;-82
2023/04/29 20:09:36;;;;;;;18.10;8.03;;;;;;;;;;10531682;28;20066;-82
2023/04/29 20:14:39;;;;;;;5.97;3.05;;;;;;;;;;10533509;28;20311;-81
2023/04/29 20:19:43;;;;;;;6.72;3.67;;;;;;;;;;10543756;28;20040;-82
2023/04/29 20:24:47;;;;;;;6.53;2.90;;;;;;;;;;10531169;28;20415;-82
2023/04/29 20:29:50;;;;;;;8.15;3.47;;;;;;;;;;10523943;28;20476;-82
2023/04/29 20:34:54;;;;;;;;;;;;;;;;;;10523038;28;20040;-82
2023/04/29 20:39:58;;;;;;;8.43;3.33;;;;;;;;;;10533553;28;19923;-81
2023/04/29 20:45:01;;;;;;;10.38;5.00;;;;;;;;;;10531775;28;20115;-83
2023/04/29 20:50:05;;;;;;;8.87;4.20;;;;;;;;;;10537323;28;20097;-83
2023/04/29 20:55:10;;;;;;;12.65;4.68;;;;;;;;;;10531088;28;20051;-82
2023/04/29 21:00:14;;;;;;;10.98;3.92;;;;;;;;;;10531683;28;20624;-82
2023/04/29 21:05:17;;;;;;;;;;;;;;;;;;10530317;28;20040;-81
2023/04/29 21:10:21;;;;;;;6.35;3.10;;;;;;;;;;10534048;28;19928;-84
2023/04/29 21:15:25;;;;;;;;;;;;;;;;;;10552844;27;20044;-83
2023/04/29 21:20:28;;;;;;;;;;;;;;;;;;10533076;28;19920;-83
2023/04/29 21:25:33;;;;;;;6.82;3.17;;;;;;;;;;10533245;28;20364;-82
2023/04/29 21:30:36;;;;;;;8.23;3.45;;;;;;;;;;10552316;28;20050;-83
2023/04/29 21:35:40;;;;;;;5.30;2.72;;;;;;;;;;10537972;28;20052;-83
2023/04/29 21:40:45;;;;;;;6.32;3.50;;;;;;;;;;10536306;28;20130;-85
2023/04/29 21:45:48;;;;;;;6.13;3.38;;;;;;;;;;10540482;28;20104;-84
2023/04/29 21:50:53;;;;;;;7.40;3.50;;;;;;;;;;10541234;28;20098;-84
2023/04/29 21:55:57;;;;;;;7.28;3.28;;;;;;;;;;10566503;28;20051;-85
2023/04/29 22:01:02;;;;;;;7.80;3.80;;;;;;;;;;10581369;28;20138;-85
2023/04/29 22:06:06;;;;;;;8.23;3.50;;;;;;;;;;10570367;28;20071;-83
2023/04/29 22:11:10;;;;;;;10.15;4.25;;;;;;;;;;10581803;28;20033;-83
2023/04/29 22:16:12;;;;;;;9.00;3.90;;;;;;;;;;10551080;28;20423;-82
2023/04/29 22:21:15;;;;;;;9.68;3.38;;;;;;;;;;10540889;28;20131;-81
2023/04/29 22:26:19;;;;;;;9.50;3.47;;;;;;;;;;10526291;28;20040;-83
2023/04/29 22:31:22;;;;;;;8.77;3.55;;;;;;;;;;10518114;28;20040;-82
2023/04/29 22:36:26;;;;;;;6.85;3.25;;;;;;;;;;10524599;28;20065;-83
2023/04/29 22:41:29;;;;;;;7.80;3.22;;;;;;;;;;10529134;28;20467;-83
2023/04/29 22:46:33;;;;;;;6.22;3.80;;;;;;;;;;10530143;28;20032;-84
2023/04/29 22:51:35;;;;;;;5.88;3.00;;;;;;;;;;10532758;28;20488;-84
2023/04/29 22:56:40;;;;;;;6.77;3.17;;;;;;;;;;10533535;28;20108;-84
2023/04/29 23:01:42;;;;;;;10.80;3.45;;;;;;;;;;10538448;28;20048;-83
2023/04/29 23:06:45;;;;;;;6.72;3.20;;;;;;;;;;10535797;28;20488;-84
2023/04/29 23:11:49;;;;;;;11.98;5.00;;;;;;;;;;10538314;28;20404;-84
2023/04/29 23:16:52;;;;;;;6.90;3.55;;;;;;;;;;10541174;28;20043;-83
2023/04/29 23:21:54;;;;;;;7.00;3.22;;;;;;;;;;10544766;28;20040;-84
2023/04/29 23:26:58;;;;;;;6.32;3.15;;;;;;;;;;10534539;28;20043;-84
2023/04/29 23:32:02;;;;;;;13.48;5.82;;;;;;;;;;10546412;28;20040;-86
2023/04/29 23:37:04;;;;;;;6.60;3.37;;;;;;;;;;10531272;28;20035;-84
2023/04/29 23:42:08;;;;;;;5.85;3.17;;;;;;;;;;10533607;28;20780;-83
2023/04/29 23:47:11;;;;;;;7.60;3.30;;;;;;;;;;10535671;28;20044;-82
2023/04/29 23:52:14;;;;;;;6.50;2.70;;;;;;;;;;10533863;28;20094;-83
2023/04/29 23:57:17;;;;;;;8.05;3.15;;;;;;;;;;10537041;28;20036;-82
